createdAt,value
2019-04-07T01:26:48.170Z,13.50
2019-04-07T03:42:59.873Z,16.70
2019-04-07T03:46:59.990Z,15.60
2019-04-07T03:51:59.912Z,12.50
2019-04-07T03:52:59.840Z,15.30
2019-04-07T03:54:00.640Z,12.69
2019-04-07T03:54:59.976Z,14.80
2019-04-07T03:55:59.926Z,12.39
2019-04-07T03:58:00.190Z,16.89
2019-04-07T03:58:59.941Z,11.19
2019-04-07T04:00:00.561Z,14.60
2019-04-07T04:01:00.539Z,13.60
2019-04-07T04:02:00.217Z,12.39
2019-04-07T04:03:00.369Z,14.69
2019-04-07T04:03:59.633Z,14.30
2019-04-07T04:04:59.969Z,13.50
2019-04-07T04:05:59.667Z,12.39
2019-04-07T04:07:00.164Z,14.10
2019-04-07T04:07:59.584Z,15.00
2019-04-07T04:08:59.582Z,13.19
2019-04-07T04:09:59.774Z,14.69
2019-04-07T04:11:00.093Z,13.69
2019-04-07T04:11:59.798Z,13.60
2019-04-07T04:12:59.543Z,11.69
2019-04-07T04:13:59.517Z,12.80
2019-04-07T04:15:00.220Z,12.69
2019-04-07T04:15:59.491Z,11.89
2019-04-07T04:16:59.479Z,12.10
2019-04-07T04:17:59.469Z,15.80
2019-04-07T04:19:00.030Z,14.80
2019-04-07T04:19:59.455Z,15.60
2019-04-07T04:20:59.650Z,14.19
2019-04-07T04:21:59.420Z,13.39
2019-04-07T04:22:59.764Z,13.19
2019-04-07T04:24:00.489Z,18.10
2019-04-07T04:24:59.579Z,14.30
2019-04-07T04:25:59.376Z,13.30
2019-04-07T04:26:59.366Z,15.30
2019-04-07T04:27:59.354Z,13.50
2019-04-07T04:28:59.801Z,12.89
2019-04-07T04:29:59.331Z,15.60
2019-04-07T04:30:59.892Z,17.10
2019-04-07T04:31:59.748Z,15.69
2019-04-07T04:32:59.771Z,12.19
2019-04-07T04:33:59.283Z,14.50
2019-04-07T04:34:59.514Z,15.30
2019-04-07T04:35:59.263Z,13.30
2019-04-07T04:36:59.897Z,14.00
2019-04-07T04:37:59.798Z,12.39
2019-04-07T04:39:00.487Z,15.50
2019-04-07T04:39:59.679Z,37.70
2019-04-07T04:41:00.101Z,18.70
2019-04-07T04:41:59.937Z,15.69
2019-04-07T04:42:59.190Z,12.80
2019-04-07T04:44:00.424Z,17.00
2019-04-07T04:44:59.162Z,16.20
2019-04-07T04:45:59.992Z,15.89
2019-04-07T04:46:59.135Z,15.30
2019-04-07T04:48:00.097Z,12.69
2019-04-07T04:48:59.111Z,14.00
2019-04-07T04:49:59.865Z,14.80
2019-04-07T04:50:59.891Z,14.19
2019-04-07T04:51:59.075Z,14.30
2019-04-07T04:52:59.886Z,13.39
2019-04-07T04:53:59.055Z,14.50
2019-04-07T04:54:59.059Z,14.00
2019-04-07T04:55:59.058Z,14.30
2019-04-07T04:56:59.023Z,14.19
2019-04-07T04:57:59.015Z,14.89
2019-04-07T04:58:59.797Z,17.00
2019-04-07T04:59:59.274Z,16.79
2019-04-07T05:00:58.973Z,13.19
2019-04-07T05:01:59.043Z,13.10
2019-04-07T05:02:59.369Z,13.50
2019-04-07T05:03:59.421Z,16.50
2019-04-07T05:04:59.351Z,13.80
2019-04-07T05:05:58.927Z,14.50
2019-04-07T05:06:59.354Z,14.30
2019-04-07T05:08:03.595Z,15.50
2019-04-07T05:08:59.910Z,14.69
2019-04-07T05:09:58.911Z,18.29
2019-04-07T05:10:58.894Z,13.60
2019-04-07T05:11:58.850Z,15.69
2019-04-07T05:12:58.942Z,12.89
2019-04-07T05:13:59.300Z,15.69
2019-04-07T05:14:58.913Z,16.60
2019-04-07T05:15:59.436Z,12.50
2019-04-07T05:16:59.477Z,14.00
2019-04-07T05:17:58.981Z,12.80
2019-04-07T05:18:58.769Z,13.10
2019-04-07T05:19:58.759Z,14.19
2019-04-07T05:20:58.759Z,15.80
2019-04-07T05:21:59.069Z,17.20
2019-04-07T05:22:58.768Z,17.60
2019-04-07T05:23:59.211Z,15.60
2019-04-07T05:24:58.703Z,16.50
2019-04-07T05:25:59.227Z,13.60
2019-04-07T05:26:58.708Z,11.89
2019-04-07T05:27:58.710Z,13.69
2019-04-07T05:28:59.351Z,15.00
2019-04-07T05:29:58.653Z,15.19
2019-04-07T05:30:59.112Z,13.19
2019-04-07T05:31:59.133Z,15.19
2019-04-07T05:32:59.056Z,14.10
2019-04-07T05:33:58.647Z,14.80
2019-04-07T05:34:58.590Z,16.89
2019-04-07T05:35:58.577Z,13.19
2019-04-07T05:36:58.751Z,14.80
2019-04-07T05:38:02.791Z,16.89
2019-04-07T05:38:58.553Z,14.80
2019-04-07T05:39:59.119Z,13.10
2019-04-07T05:40:58.670Z,17.00
2019-04-07T05:41:59.206Z,14.39
2019-04-07T05:42:58.758Z,14.39
2019-04-07T05:43:58.521Z,13.69
2019-04-07T05:44:58.582Z,12.50
2019-04-07T05:45:59.217Z,14.19
2019-04-07T05:46:58.460Z,14.69
2019-04-07T05:47:58.858Z,13.10
2019-04-07T05:48:58.860Z,14.80
2019-04-07T05:49:59.640Z,12.69
2019-04-07T05:51:00.003Z,14.50
2019-04-07T05:51:59.597Z,14.10
2019-04-07T05:52:58.789Z,15.00
2019-04-07T05:53:58.378Z,16.20
2019-04-07T05:54:58.784Z,14.39
2019-04-07T05:55:58.355Z,16.20
2019-04-07T05:57:00.362Z,14.80
2019-04-07T05:57:58.679Z,16.00
2019-04-07T05:58:58.326Z,14.80
2019-04-07T05:59:58.317Z,12.00
2019-04-07T06:00:58.682Z,14.89
2019-04-07T06:02:01.304Z,14.60
2019-04-07T06:02:58.334Z,20.29
2019-04-07T06:03:58.268Z,13.30
2019-04-07T06:05:00.036Z,14.00
2019-04-07T06:05:58.247Z,13.30
2019-04-07T06:06:58.231Z,28.50
2019-04-07T06:08:02.697Z,17.20
2019-04-07T06:09:23.077Z,13.69
2019-04-07T06:10:26.476Z,14.00
2019-04-07T06:11:22.682Z,28.20
2019-04-07T06:12:22.726Z,13.60
2019-04-07T06:13:22.646Z,12.50
2019-04-07T06:14:22.730Z,14.30
2019-04-07T06:15:23.275Z,13.39
2019-04-07T06:16:22.658Z,16.39
2019-04-07T06:17:25.661Z,15.30
2019-04-07T06:18:22.912Z,12.00
2019-04-07T06:19:22.578Z,14.50
2019-04-07T06:20:22.604Z,12.89
2019-04-07T06:21:23.349Z,14.69
2019-04-07T06:22:23.460Z,14.39
2019-04-07T06:23:24.717Z,13.89
2019-04-07T06:24:22.683Z,17.20
2019-04-07T06:25:22.516Z,15.50
2019-04-07T06:26:22.505Z,18.10
2019-04-07T06:27:22.829Z,16.50
2019-04-07T06:28:22.746Z,14.39
2019-04-07T06:29:26.099Z,15.10
2019-04-07T06:30:23.228Z,12.89
2019-04-07T06:31:24.507Z,15.50
2019-04-07T06:32:22.434Z,13.69
2019-04-07T06:33:22.507Z,23.50
2019-04-07T06:34:22.640Z,16.10
2019-04-07T06:35:22.575Z,16.50
2019-04-07T06:36:25.402Z,13.19
2019-04-07T06:37:25.866Z,14.50
2019-04-07T06:38:31.175Z,14.10
2019-04-07T06:39:24.113Z,14.39
2019-04-07T06:40:23.088Z,16.29
2019-04-07T06:41:25.003Z,14.10
2019-04-07T06:42:22.946Z,13.30
2019-04-07T06:43:22.365Z,15.10
2019-04-07T06:44:23.274Z,16.00
2019-04-07T06:45:23.364Z,14.89
2019-04-07T06:46:26.093Z,15.69
2019-04-07T06:47:46.872Z,20.79
2019-04-07T06:48:47.127Z,19.39
2019-04-07T06:49:47.487Z,14.60
2019-04-07T06:50:50.883Z,14.69
2019-04-07T06:52:12.115Z,16.39
2019-04-07T06:53:17.052Z,15.89
2019-04-07T06:54:35.640Z,13.89
2019-04-07T06:55:36.256Z,13.19
2019-04-07T06:56:35.617Z,13.69
2019-04-07T06:57:37.442Z,15.80
2019-04-07T06:58:38.822Z,17.50
2019-04-07T06:59:35.580Z,15.00
2019-04-07T07:00:35.581Z,16.70
2019-04-07T07:01:35.555Z,15.10
2019-04-07T07:02:35.839Z,10.69
2019-04-07T07:03:38.076Z,18.79
2019-04-07T07:04:35.602Z,13.89
2019-04-07T07:05:36.227Z,16.79
2019-04-07T07:06:35.632Z,15.00
2019-04-07T07:07:35.743Z,16.60
2019-04-07T07:08:43.809Z,13.10
2019-04-07T07:10:00.983Z,16.60
2019-04-07T07:10:59.935Z,15.60
2019-04-07T07:12:00.633Z,15.30
2019-04-07T07:13:02.844Z,18.10
2019-04-07T07:14:35.438Z,16.00
2019-04-07T07:15:49.387Z,19.89
2019-04-07T07:16:49.115Z,19.20
2019-04-07T07:17:50.827Z,22.39
2019-04-07T07:18:48.858Z,15.89
2019-04-07T07:19:48.837Z,15.30
2019-04-07T07:20:48.839Z,15.60
2019-04-07T07:21:49.076Z,22.70
2019-04-07T07:22:49.574Z,18.89
2019-04-07T07:23:49.818Z,46.20
2019-04-07T07:24:49.132Z,16.29
2019-04-07T07:25:48.740Z,16.70
2019-04-07T07:26:49.511Z,16.89
2019-04-07T07:27:48.818Z,13.80
2019-04-07T07:28:48.708Z,16.39
2019-04-07T07:29:52.555Z,17.79
2019-04-07T07:30:51.036Z,14.80
2019-04-07T07:31:51.771Z,14.39
2019-04-07T07:32:48.675Z,12.80
2019-04-07T07:33:48.650Z,17.39
2019-04-07T07:34:48.641Z,18.20
2019-04-07T07:35:49.307Z,16.89
2019-04-07T07:36:52.281Z,15.89
2019-04-07T07:38:13.654Z,14.10
2019-04-07T07:39:13.875Z,13.19
2019-04-07T07:40:16.078Z,17.10
2019-04-07T07:41:13.052Z,19.00
2019-04-07T07:42:13.776Z,17.60
2019-04-07T07:43:13.224Z,13.39
2019-04-07T07:44:13.396Z,15.19
2019-04-07T07:45:14.010Z,17.00
2019-04-07T07:46:13.143Z,14.30
2019-04-07T07:47:13.397Z,15.00
2019-04-07T07:48:12.977Z,16.39
2019-04-07T07:49:13.615Z,14.50
2019-04-07T07:50:13.563Z,15.39
2019-04-07T07:51:14.414Z,13.39
2019-04-07T07:52:16.538Z,14.80
2019-04-07T07:53:12.962Z,21.29
2019-04-07T07:54:14.950Z,13.30
2019-04-07T07:55:13.176Z,22.60
2019-04-07T07:56:13.577Z,14.69
2019-04-07T07:57:13.380Z,13.60
2019-04-07T07:58:13.831Z,13.80
2019-04-07T07:59:13.471Z,12.69
2019-04-07T08:00:12.872Z,12.39
2019-04-07T08:01:14.893Z,12.39
2019-04-07T08:02:17.525Z,14.50
2019-04-07T08:03:12.818Z,12.19
2019-04-07T08:04:12.800Z,13.89
2019-04-07T08:05:13.449Z,14.30
2019-04-07T08:06:12.778Z,14.19
2019-04-07T08:07:15.498Z,12.69
2019-04-07T08:08:14.969Z,12.19
2019-04-07T08:09:15.452Z,18.39
2019-04-07T08:10:12.773Z,12.50
2019-04-07T08:11:15.136Z,11.69
2019-04-07T08:12:12.722Z,14.00
2019-04-07T08:13:12.864Z,14.19
2019-04-07T08:14:16.629Z,10.30
2019-04-07T08:15:12.706Z,13.50
2019-04-07T08:16:12.671Z,12.10
2019-04-07T08:17:12.660Z,10.69
2019-04-07T08:18:12.788Z,13.00
2019-04-07T08:19:13.494Z,13.50
2019-04-07T08:20:13.131Z,11.50
2019-04-07T08:21:17.149Z,15.39
2019-04-07T08:22:25.387Z,16.10
2019-04-07T08:23:14.304Z,13.10
2019-04-07T08:24:17.073Z,14.60
2019-04-07T08:25:12.569Z,17.79
2019-04-07T08:26:13.395Z,15.60
2019-04-07T08:27:12.596Z,13.10
2019-04-07T08:28:12.562Z,11.30
2019-04-07T08:29:13.815Z,13.39
2019-04-07T08:30:13.817Z,11.30
2019-04-07T08:31:13.205Z,10.80
2019-04-07T08:32:13.147Z,12.60
2019-04-07T08:33:12.662Z,11.10
2019-04-07T08:34:13.077Z,10.19
2019-04-07T08:35:13.098Z,11.69
2019-04-07T08:36:13.940Z,12.50
2019-04-07T08:37:14.405Z,14.69
2019-04-07T08:38:13.827Z,10.69
2019-04-07T08:39:20.855Z,10.80
2019-04-07T08:40:14.034Z,13.10
2019-04-07T08:41:15.439Z,15.50
2019-04-07T08:42:17.488Z,11.30
2019-04-07T08:43:37.368Z,11.10
2019-04-07T08:44:37.016Z,11.39
2019-04-07T08:45:37.093Z,8.89
2019-04-07T08:46:40.956Z,11.50
2019-04-07T08:47:36.808Z,8.89
2019-04-07T08:48:37.448Z,9.00
2019-04-07T08:49:36.788Z,11.00
2019-04-07T08:50:37.424Z,9.19
2019-04-07T08:51:36.765Z,11.60
2019-04-07T08:52:40.602Z,11.80
2019-04-07T08:53:36.737Z,9.39
2019-04-07T08:54:36.899Z,10.10
2019-04-07T08:55:36.782Z,11.00
2019-04-07T08:56:36.737Z,12.00
2019-04-07T08:57:36.964Z,10.80
2019-04-07T08:58:38.750Z,11.00
2019-04-07T08:59:40.539Z,13.39
2019-04-07T09:00:37.226Z,9.19
2019-04-07T09:01:37.207Z,12.50
2019-04-07T09:02:37.076Z,10.10
2019-04-07T09:03:36.629Z,12.10
2019-04-07T09:04:36.656Z,9.19
2019-04-07T09:05:36.615Z,14.60
2019-04-07T09:06:37.422Z,12.30
2019-04-07T09:07:36.585Z,10.00
2019-04-07T09:08:38.013Z,9.19
2019-04-07T09:09:40.384Z,10.80
2019-04-07T09:11:01.032Z,10.30
2019-04-07T09:12:01.502Z,10.60
2019-04-07T09:13:03.002Z,12.50
2019-04-07T09:14:00.999Z,12.19
2019-04-07T09:15:03.933Z,10.00
2019-04-07T09:16:00.986Z,13.10
2019-04-07T09:17:00.984Z,9.89
2019-04-07T09:18:00.960Z,8.80
2019-04-07T09:19:04.657Z,9.00
2019-04-07T09:20:03.028Z,9.80
2019-04-07T09:21:00.942Z,11.00
2019-04-07T09:22:00.925Z,10.69
2019-04-07T09:23:01.726Z,10.19
2019-04-07T09:24:00.890Z,13.30
2019-04-07T09:25:06.640Z,10.39
2019-04-07T09:26:26.064Z,9.19
2019-04-07T09:27:25.785Z,8.69
2019-04-07T09:28:25.338Z,9.80
2019-04-07T09:29:27.956Z,8.69
2019-04-07T09:30:26.150Z,10.80
2019-04-07T09:31:25.298Z,10.80
2019-04-07T09:32:25.403Z,10.19
2019-04-07T09:33:25.278Z,10.80
2019-04-07T09:34:25.267Z,9.39
2019-04-07T09:35:26.474Z,7.00
2019-04-07T09:36:25.245Z,12.89
2019-04-07T09:37:26.127Z,9.80
2019-04-07T09:38:26.609Z,10.30
2019-04-07T09:39:25.220Z,7.90
2019-04-07T09:40:25.329Z,8.39
2019-04-07T09:41:27.719Z,13.19
2019-04-07T09:42:25.878Z,10.00
2019-04-07T09:43:25.166Z,9.00
2019-04-07T09:44:25.421Z,8.80
2019-04-07T09:45:25.419Z,7.40
2019-04-07T09:46:25.136Z,6.80
2019-04-07T09:47:25.918Z,8.50
2019-04-07T09:48:25.118Z,8.50
2019-04-07T09:49:25.688Z,8.80
2019-04-07T09:50:27.932Z,10.19
2019-04-07T09:51:25.434Z,8.39
2019-04-07T09:52:25.083Z,8.19
2019-04-07T09:53:25.061Z,8.39
2019-04-07T09:54:25.191Z,7.90
2019-04-07T09:55:26.780Z,9.80
2019-04-07T09:56:27.221Z,9.39
2019-04-07T09:57:25.889Z,10.60
2019-04-07T09:58:25.217Z,9.00
2019-04-07T09:59:24.998Z,16.29
2019-04-07T10:00:25.186Z,8.39
2019-04-07T10:01:27.752Z,10.60
2019-04-07T10:02:25.123Z,7.50
2019-04-07T10:03:24.954Z,10.69
2019-04-07T10:04:25.680Z,6.69
2019-04-07T10:05:24.942Z,9.10
2019-04-07T10:06:24.928Z,8.10
2019-04-07T10:07:25.140Z,9.69
2019-04-07T10:08:24.989Z,9.30
2019-04-07T10:09:25.608Z,8.19
2019-04-07T10:10:24.894Z,6.80
2019-04-07T10:11:25.205Z,8.30
2019-04-07T10:12:25.777Z,6.40
2019-04-07T10:13:24.851Z,11.89
2019-04-07T10:14:25.081Z,10.89
2019-04-07T10:15:25.519Z,7.90
2019-04-07T10:16:24.822Z,7.00
2019-04-07T10:17:26.027Z,7.40
2019-04-07T10:18:25.218Z,12.80
2019-04-07T10:19:25.503Z,9.89
2019-04-07T10:20:25.788Z,10.00
2019-04-07T10:21:25.324Z,9.10
2019-04-07T10:22:25.496Z,8.69
2019-04-07T10:23:25.345Z,8.10
2019-04-07T10:24:24.777Z,8.69
2019-04-07T10:25:26.718Z,7.90
2019-04-07T10:26:24.718Z,8.89
2019-04-07T10:27:24.767Z,7.00
2019-04-07T10:28:25.488Z,5.30
2019-04-07T10:29:25.382Z,8.10
2019-04-07T10:30:24.723Z,6.80
2019-04-07T10:31:24.731Z,8.69
2019-04-07T10:32:26.506Z,10.30
2019-04-07T10:33:24.651Z,8.30
2019-04-07T10:34:24.898Z,11.30
2019-04-07T10:35:24.619Z,11.80
2019-04-07T10:36:25.298Z,17.00
2019-04-07T10:37:24.603Z,11.80
2019-04-07T10:38:24.784Z,8.00
2019-04-07T10:39:25.054Z,10.80
2019-04-07T10:40:25.389Z,8.60
2019-04-07T10:41:24.564Z,8.00
2019-04-07T10:42:24.704Z,6.90
2019-04-07T10:43:25.041Z,10.00
2019-04-07T10:44:24.960Z,11.10
2019-04-07T10:45:24.981Z,8.80
2019-04-07T10:46:24.509Z,5.40
2019-04-07T10:47:24.501Z,10.30
2019-04-07T10:48:25.789Z,10.69
2019-04-07T10:49:24.476Z,9.10
2019-04-07T10:50:24.668Z,9.30
2019-04-07T10:51:25.254Z,9.19
2019-04-07T10:52:24.449Z,7.69
2019-04-07T10:53:24.435Z,7.69
2019-04-07T10:54:25.195Z,8.69
2019-04-07T10:55:24.420Z,10.50
2019-04-07T10:56:24.405Z,10.10
2019-04-07T10:57:24.399Z,9.00
2019-04-07T10:58:24.832Z,10.30
2019-04-07T10:59:24.373Z,9.10
2019-04-07T11:00:24.368Z,9.60
2019-04-07T11:01:24.558Z,7.80
2019-04-07T11:02:24.956Z,8.39
2019-04-07T11:03:24.906Z,9.50
2019-04-07T11:04:24.375Z,7.90
2019-04-07T11:05:24.461Z,6.59
2019-04-07T11:06:24.300Z,9.39
2019-04-07T11:07:24.940Z,9.89
2019-04-07T11:08:24.423Z,11.19
2019-04-07T11:09:24.268Z,9.80
2019-04-07T11:10:34.579Z,10.00
2019-04-07T11:11:49.218Z,7.59
2019-04-07T11:12:48.715Z,8.19
2019-04-07T11:13:49.013Z,7.50
2019-04-07T11:14:49.043Z,9.10
2019-04-07T11:15:48.817Z,8.89
2019-04-07T11:16:48.675Z,8.80
2019-04-07T11:17:48.661Z,8.60
2019-04-07T11:18:49.056Z,7.59
2019-04-07T11:19:48.931Z,7.59
2019-04-07T11:20:48.880Z,7.80
2019-04-07T11:21:49.145Z,9.39
2019-04-07T11:22:48.961Z,8.10
2019-04-07T11:23:49.106Z,7.30
2019-04-07T11:24:48.594Z,12.00
2019-04-07T11:25:49.408Z,7.80
2019-04-07T11:26:48.637Z,9.10
2019-04-07T11:27:48.564Z,10.80
2019-04-07T11:28:49.103Z,8.89
2019-04-07T11:29:48.571Z,8.60
2019-04-07T11:30:48.529Z,8.10
2019-04-07T11:31:48.523Z,8.30
2019-04-07T11:32:48.510Z,8.00
2019-04-07T11:33:48.503Z,7.30
2019-04-07T11:34:48.670Z,8.19
2019-04-07T11:35:48.566Z,9.60
2019-04-07T11:36:48.674Z,10.50
2019-04-07T11:37:48.573Z,8.69
2019-04-07T11:38:48.447Z,8.39
2019-04-07T11:39:48.436Z,9.00
2019-04-07T11:40:51.013Z,6.80
2019-04-07T11:41:48.544Z,9.19
2019-04-07T11:42:49.024Z,8.00
2019-04-07T11:43:48.397Z,10.10
2019-04-07T11:44:48.795Z,10.19
2019-04-07T11:45:58.532Z,9.89
2019-04-07T11:47:12.843Z,10.89
2019-04-07T11:48:12.825Z,10.30
2019-04-07T11:49:13.499Z,8.80
2019-04-07T11:50:13.487Z,7.50
2019-04-07T11:51:13.002Z,8.50
2019-04-07T11:52:13.611Z,9.80
2019-04-07T11:53:13.439Z,12.89
2019-04-07T11:54:13.028Z,8.00
2019-04-07T11:55:12.753Z,9.80
2019-04-07T11:56:13.270Z,8.60
2019-04-07T11:57:13.577Z,7.90
2019-04-07T11:58:16.558Z,8.30
2019-04-07T11:59:37.798Z,11.50
2019-04-07T12:00:39.209Z,10.39
2019-04-07T12:01:37.168Z,7.30
2019-04-07T12:02:38.185Z,7.59
2019-04-07T12:03:37.541Z,7.80
2019-04-07T12:04:37.923Z,8.19
2019-04-07T12:05:37.855Z,10.60
2019-04-07T12:06:37.508Z,7.80
2019-04-07T12:07:37.105Z,7.30
2019-04-07T12:08:37.733Z,7.19
2019-04-07T12:09:37.114Z,10.10
2019-04-07T12:10:37.759Z,10.89
2019-04-07T12:11:37.068Z,7.80
2019-04-07T12:12:37.494Z,10.19
2019-04-07T12:13:37.439Z,8.60
2019-04-07T12:14:37.392Z,6.59
2019-04-07T12:15:37.023Z,7.59
2019-04-07T12:16:37.108Z,9.80
2019-04-07T12:17:41.469Z,10.00
2019-04-07T12:18:36.991Z,7.19
2019-04-07T12:19:36.987Z,8.30
2019-04-07T12:20:37.608Z,7.30
2019-04-07T12:21:38.255Z,7.90
2019-04-07T12:22:36.959Z,10.10
2019-04-07T12:23:37.010Z,9.39
2019-04-07T12:24:36.934Z,7.69
2019-04-07T12:25:37.321Z,8.30
2019-04-07T12:26:41.104Z,9.80
2019-04-07T12:27:37.728Z,10.10
2019-04-07T12:28:37.630Z,7.80
2019-04-07T12:29:36.881Z,6.69
2019-04-07T12:30:36.973Z,9.00
2019-04-07T12:31:36.877Z,7.30
2019-04-07T12:32:37.699Z,7.50
2019-04-07T12:33:38.635Z,9.89
2019-04-07T12:34:36.832Z,9.39
2019-04-07T12:35:36.823Z,9.69
2019-04-07T12:36:37.545Z,7.90
2019-04-07T12:37:39.218Z,8.10
2019-04-07T12:38:36.832Z,8.89
2019-04-07T12:39:36.783Z,9.10
2019-04-07T12:40:36.778Z,10.60
2019-04-07T12:41:36.887Z,8.39
2019-04-07T12:42:38.505Z,10.69
2019-04-07T12:43:36.735Z,7.40
2019-04-07T12:44:37.391Z,9.50
2019-04-07T12:45:37.024Z,8.50
2019-04-07T12:46:37.568Z,8.00
2019-04-07T12:47:36.706Z,9.10
2019-04-07T12:48:36.689Z,8.69
2019-04-07T12:49:42.223Z,9.00
2019-04-07T12:51:01.823Z,9.39
2019-04-07T12:52:01.134Z,9.30
2019-04-07T12:53:03.432Z,8.19
2019-04-07T12:54:01.906Z,10.39
2019-04-07T12:55:01.641Z,9.69
2019-04-07T12:56:02.484Z,8.30
2019-04-07T12:57:03.710Z,9.60
2019-04-07T12:58:01.069Z,8.60
2019-04-07T12:59:01.421Z,8.19
2019-04-07T13:00:01.616Z,11.39
2019-04-07T13:01:09.888Z,9.00
2019-04-07T13:02:25.811Z,6.19
2019-04-07T13:03:25.503Z,6.09
2019-04-07T13:04:25.620Z,7.30
2019-04-07T13:05:25.463Z,7.30
2019-04-07T13:06:25.456Z,9.50
2019-04-07T13:07:25.443Z,8.00
2019-04-07T13:08:25.824Z,11.60
2019-04-07T13:09:29.636Z,7.59
2019-04-07T13:10:49.890Z,8.89
2019-04-07T13:11:50.416Z,10.30
2019-04-07T13:12:53.613Z,6.90
2019-04-07T13:13:50.592Z,9.50
2019-04-07T13:14:50.246Z,11.80
2019-04-07T13:15:50.998Z,7.69
2019-04-07T13:16:50.370Z,8.50
2019-04-07T13:17:50.576Z,8.39
2019-04-07T13:18:50.027Z,6.59
2019-04-07T13:19:50.601Z,6.90
2019-04-07T13:20:51.272Z,8.69
2019-04-07T13:21:49.768Z,7.59
2019-04-07T13:22:49.756Z,11.19
2019-04-07T13:23:50.370Z,9.19
2019-04-07T13:24:49.743Z,8.60
2019-04-07T13:25:53.154Z,7.69
2019-04-07T13:26:50.060Z,9.30
2019-04-07T13:27:50.126Z,8.69
2019-04-07T13:28:50.048Z,6.59
2019-04-07T13:29:49.944Z,7.59
2019-04-07T13:30:50.088Z,7.69
2019-04-07T13:31:50.310Z,11.10
2019-04-07T13:32:53.097Z,8.19
2019-04-07T13:33:50.168Z,8.10
2019-04-07T13:34:49.870Z,8.19
2019-04-07T13:35:49.620Z,9.39
2019-04-07T13:36:51.077Z,8.89
2019-04-07T13:37:50.065Z,8.50
2019-04-07T13:38:50.140Z,7.09
2019-04-07T13:39:49.578Z,8.10
2019-04-07T13:40:50.051Z,8.80
2019-04-07T13:41:54.212Z,9.69
2019-04-07T13:42:49.547Z,7.80
2019-04-07T13:43:49.543Z,7.50
2019-04-07T13:44:49.703Z,8.60
2019-04-07T13:45:49.517Z,8.80
2019-04-07T13:46:49.504Z,8.69
2019-04-07T13:47:49.525Z,8.00
2019-04-07T13:48:53.653Z,7.80
2019-04-07T13:50:13.948Z,8.50
2019-04-07T13:51:15.401Z,8.30
2019-04-07T13:52:17.964Z,7.90
2019-04-07T13:53:38.386Z,10.69
2019-04-07T13:54:38.429Z,9.10
2019-04-07T13:55:41.789Z,7.00
2019-04-07T13:56:38.355Z,7.30
2019-04-07T13:57:38.345Z,8.50
2019-04-07T13:58:38.979Z,10.10
2019-04-07T13:59:42.629Z,8.39
2019-04-07T14:00:38.310Z,11.39
2019-04-07T14:01:38.644Z,12.80
2019-04-07T14:02:38.895Z,8.19
2019-04-07T14:03:38.275Z,10.69
2019-04-07T14:04:39.144Z,8.00
2019-04-07T14:05:40.080Z,8.19
2019-04-07T14:06:38.250Z,8.00
2019-04-07T14:07:38.410Z,8.39
2019-04-07T14:08:38.220Z,8.19
2019-04-07T14:09:39.020Z,6.80
2019-04-07T14:10:38.301Z,8.00
2019-04-07T14:11:50.093Z,11.69
2019-04-07T14:13:05.364Z,9.60
2019-04-07T14:14:02.739Z,8.69
2019-04-07T14:15:02.922Z,7.19
2019-04-07T14:16:02.960Z,7.69
2019-04-07T14:17:02.810Z,9.10
2019-04-07T14:18:02.604Z,8.60
2019-04-07T14:19:03.546Z,7.19
2019-04-07T14:20:02.579Z,7.90
2019-04-07T14:21:02.995Z,9.89
2019-04-07T14:22:03.290Z,9.30
2019-04-07T14:23:03.268Z,10.30
2019-04-07T14:24:02.610Z,7.40
2019-04-07T14:25:02.727Z,8.80
2019-04-07T14:26:03.446Z,8.89
2019-04-07T14:27:03.244Z,7.50
2019-04-07T14:28:02.542Z,7.19
2019-04-07T14:29:03.052Z,7.00
2019-04-07T14:30:02.837Z,7.19
2019-04-07T14:31:02.502Z,8.19
2019-04-07T14:32:02.445Z,7.09
2019-04-07T14:33:03.382Z,7.09
2019-04-07T14:34:03.408Z,8.39
2019-04-07T14:35:02.434Z,10.30
2019-04-07T14:36:02.406Z,8.00
2019-04-07T14:37:03.223Z,7.59
2019-04-07T14:38:02.630Z,8.50
2019-04-07T14:39:02.368Z,6.80
2019-04-07T14:40:03.651Z,7.80
2019-04-07T14:41:03.119Z,7.40
2019-04-07T14:42:06.299Z,8.19
2019-04-07T14:43:02.557Z,9.80
2019-04-07T14:44:03.101Z,6.59
2019-04-07T14:45:02.310Z,9.80
2019-04-07T14:46:03.195Z,6.30
2019-04-07T14:47:03.202Z,6.09
2019-04-07T14:48:03.350Z,7.69
2019-04-07T14:49:02.263Z,6.59
2019-04-07T14:50:02.254Z,8.19
2019-04-07T14:51:02.262Z,8.00
2019-04-07T14:52:02.559Z,9.60
2019-04-07T14:53:03.118Z,7.00
2019-04-07T14:54:02.953Z,7.90
2019-04-07T14:55:02.737Z,8.30
2019-04-07T14:56:05.537Z,8.80
2019-04-07T14:57:02.207Z,9.00
2019-04-07T14:58:02.162Z,8.39
2019-04-07T14:59:02.938Z,9.10
2019-04-07T15:00:02.300Z,9.69
2019-04-07T15:01:05.463Z,13.30
2019-04-07T15:02:02.223Z,8.60
2019-04-07T15:03:02.163Z,7.09
2019-04-07T15:04:02.276Z,7.59
2019-04-07T15:05:02.970Z,7.59
2019-04-07T15:06:02.076Z,7.00
2019-04-07T15:07:05.496Z,10.00
2019-04-07T15:08:02.053Z,8.39
2019-04-07T15:09:04.727Z,7.59
2019-04-07T15:10:02.459Z,6.30
2019-04-07T15:11:02.672Z,10.00
2019-04-07T15:12:13.614Z,7.59
2019-04-07T15:13:28.160Z,8.00
2019-04-07T15:14:27.339Z,6.90
2019-04-07T15:15:26.799Z,6.09
2019-04-07T15:16:26.445Z,7.59
2019-04-07T15:17:27.154Z,8.10
2019-04-07T15:18:26.417Z,8.39
2019-04-07T15:19:26.406Z,7.59
2019-04-07T15:20:27.026Z,12.60
2019-04-07T15:21:27.354Z,8.10
2019-04-07T15:22:29.924Z,6.80
2019-04-07T15:23:29.432Z,5.90
2019-04-07T15:24:26.357Z,7.00
2019-04-07T15:25:27.584Z,7.30
2019-04-07T15:26:27.095Z,9.60
2019-04-07T15:27:27.216Z,7.69
2019-04-07T15:28:29.737Z,5.40
2019-04-07T15:29:26.425Z,7.19
2019-04-07T15:30:26.479Z,7.00
2019-04-07T15:31:26.443Z,8.39
2019-04-07T15:32:28.657Z,7.80
2019-04-07T15:33:26.248Z,9.50
2019-04-07T15:34:26.402Z,8.30
2019-04-07T15:35:26.488Z,9.80
2019-04-07T15:36:26.452Z,9.89
2019-04-07T15:37:26.912Z,8.39
2019-04-07T15:38:27.191Z,8.60
2019-04-07T15:39:28.908Z,8.69
2019-04-07T15:40:26.177Z,8.60
2019-04-07T15:41:26.156Z,9.39
2019-04-07T15:42:35.891Z,8.50
2019-04-07T15:43:27.911Z,7.50
2019-04-07T15:44:27.066Z,7.09
2019-04-07T15:45:26.642Z,8.30
2019-04-07T15:46:26.769Z,8.50
2019-04-07T15:47:26.589Z,9.80
2019-04-07T15:48:27.078Z,7.40
2019-04-07T15:49:28.011Z,11.10
2019-04-07T15:50:29.232Z,9.00
2019-04-07T15:51:26.300Z,6.40
2019-04-07T15:52:26.354Z,7.80
2019-04-07T15:53:26.021Z,7.59
2019-04-07T15:54:26.015Z,8.50
2019-04-07T15:55:36.969Z,6.09
2019-04-07T15:56:51.485Z,6.40
2019-04-07T15:57:53.548Z,7.69
2019-04-07T15:58:50.855Z,8.39
2019-04-07T15:59:50.457Z,6.80
2019-04-07T16:00:50.419Z,8.60
2019-04-07T16:01:50.417Z,7.90
2019-04-07T16:02:52.205Z,6.90
2019-04-07T16:03:53.469Z,9.89
2019-04-07T16:04:51.213Z,7.40
2019-04-07T16:05:51.246Z,8.10
2019-04-07T16:06:51.299Z,8.10
2019-04-07T16:07:53.068Z,10.19
2019-04-07T16:08:51.171Z,7.90
2019-04-07T16:09:55.169Z,7.40
2019-04-07T16:11:16.577Z,9.00
2019-04-07T16:12:14.785Z,8.10
2019-04-07T16:13:15.415Z,7.69
2019-04-07T16:14:15.774Z,6.30
2019-04-07T16:15:16.579Z,7.00
2019-04-07T16:16:14.812Z,6.19
2019-04-07T16:17:14.728Z,8.10
2019-04-07T16:18:14.767Z,6.90
2019-04-07T16:19:19.714Z,12.10
2019-04-07T16:20:40.391Z,9.19
2019-04-07T16:21:41.768Z,8.50
2019-04-07T16:22:39.150Z,9.00
2019-04-07T16:23:39.141Z,6.90
2019-04-07T16:24:39.442Z,7.30
2019-04-07T16:25:40.264Z,6.69
2019-04-07T16:26:39.882Z,9.60
2019-04-07T16:27:39.692Z,7.09
2019-04-07T16:28:41.363Z,8.30
2019-04-07T16:29:39.795Z,7.50
2019-04-07T16:30:39.455Z,9.39
2019-04-07T16:31:39.132Z,6.59
2019-04-07T16:32:39.198Z,8.00
2019-04-07T16:33:39.786Z,7.90
2019-04-07T16:34:41.407Z,6.59
2019-04-07T16:35:39.841Z,9.10
2019-04-07T16:36:39.012Z,8.69
2019-04-07T16:37:39.152Z,12.39
2019-04-07T16:38:39.650Z,9.00
2019-04-07T16:39:38.967Z,8.00
2019-04-07T16:40:41.347Z,8.19
2019-04-07T16:41:39.262Z,10.00
2019-04-07T16:42:39.231Z,13.39
2019-04-07T16:43:39.787Z,7.90
2019-04-07T16:44:42.729Z,7.09
2019-04-07T16:45:38.897Z,6.50
2019-04-07T16:46:39.130Z,8.30
2019-04-07T16:47:38.882Z,10.00
2019-04-07T16:48:40.213Z,7.00
2019-04-07T16:49:41.339Z,10.39
2019-04-07T16:50:38.839Z,7.90
2019-04-07T16:51:38.831Z,8.30
2019-04-07T16:52:39.563Z,10.69
2019-04-07T16:53:41.697Z,9.69
2019-04-07T16:54:41.648Z,7.40
2019-04-07T16:55:39.874Z,10.19
2019-04-07T16:56:39.150Z,9.60
2019-04-07T16:57:39.631Z,7.59
2019-04-07T16:58:40.025Z,9.89
2019-04-07T16:59:40.747Z,7.80
2019-04-07T17:00:39.710Z,7.40
2019-04-07T17:01:38.720Z,10.39
2019-04-07T17:02:39.534Z,8.19
2019-04-07T17:03:38.708Z,8.39
2019-04-07T17:04:38.694Z,9.39